Time;durP1;ratioP1;P1;durP2;ratioP2;P2;SDS_P1;SDS_P2;PMS_P1;PMS_P2;Temp;Humidity;BMP_temperature;BMP_pressure;BME280_temperature;BME280_humidity;BME280_pressure;Samples;Min_cycle;Max_cycle;Signal;HPM_P1;HPM_P2
2023/04/28 00:01:41;;;;;;;;;;;19.00;35.60;;;;;;5079589;28;19927;-59
2023/04/28 00:04:08;;;;;;;;;;;19.00;35.60;;;;;;5066413;28;19960;-59
2023/04/28 00:06:36;;;;;;;;;;;18.90;35.60;;;;;;5078128;28;19920;-59
2023/04/28 00:09:02;;;;;;;;;;;19.00;35.70;;;;;;5077857;28;19920;-58
2023/04/28 00:11:29;;;;;;;;;;;19.00;35.60;;;;;;5060717;28;20350;-58
2023/04/28 00:13:56;;;;;;;;;;;18.90;35.60;;;;;;5063223;28;19920;-58
2023/04/28 00:16:23;;;;;;;;;;;18.90;35.60;;;;;;5083072;28;19924;-59
2023/04/28 00:18:51;;;;;;;;;;;18.90;35.60;;;;;;5062044;28;19928;-59
2023/04/28 00:21:18;;;;;;;;;;;18.90;35.60;;;;;;5065415;28;20015;-58
2023/04/28 00:23:45;;;;;;;;;;;18.90;35.60;;;;;;5074556;28;19943;-58
2023/04/28 00:26:12;;;;;;;;;;;18.90;35.60;;;;;;5061032;28;19921;-58
2023/04/28 00:28:38;;;;;;;;;;;18.90;35.50;;;;;;5078220;28;19924;-59
2023/04/28 00:31:09;;;;;;;;;;;18.90;35.50;;;;;;5061367;28;19978;-59
2023/04/28 00:33:36;;;;;;;;;;;18.90;35.50;;;;;;5081492;28;19921;-60
2023/04/28 00:36:05;;;;;;;;;;;18.90;35.50;;;;;;5060919;28;19924;-60
2023/04/28 00:38:32;;;;;;;;;;;18.90;35.60;;;;;;5075833;28;19974;-59
2023/04/28 00:40:58;;;;;;;;;;;18.80;35.40;;;;;;5062535;28;19924;-59
2023/04/28 00:43:25;;;;;;;;;;;18.80;35.40;;;;;;5062563;28;19920;-59
2023/04/28 00:45:52;;;;;;;;;;;18.80;35.50;;;;;;5077670;28;19927;-59
2023/04/28 00:48:19;;;;;;;;;;;18.90;35.60;;;;;;5082796;28;19924;-59
2023/04/28 00:50:46;;;;;;;;;;;18.80;35.50;;;;;;5083193;28;19921;-60
2023/04/28 00:53:14;;;;;;;;;;;18.90;35.60;;;;;;5071363;28;19920;-60
2023/04/28 00:55:41;;;;;;;;;;;18.80;35.50;;;;;;5060014;28;19956;-60
2023/04/28 00:58:08;;;;;;;;;;;18.80;35.50;;;;;;5080037;28;19920;-59
2023/04/28 01:00:35;;;;;;;;;;;18.80;35.50;;;;;;5079799;28;19977;-59
2023/04/28 01:03:01;;;;;;;;;;;18.80;35.50;;;;;;5077272;28;19921;-58
2023/04/28 01:05:28;;;;;;;;;;;18.80;35.50;;;;;;5059899;28;20402;-59
2023/04/28 01:07:55;;;;;;;;;;;18.80;35.50;;;;;;5082274;28;19924;-60
2023/04/28 01:10:23;;;;;;;;;;;18.80;35.50;;;;;;5062585;28;19924;-57
2023/04/28 01:12:50;;;;;;;;;;;18.80;35.50;;;;;;5077604;28;19920;-58
2023/04/28 01:15:18;;;;;;;;;;;18.80;35.50;;;;;;5062121;28;20278;-58
2023/04/28 01:17:45;;;;;;;;;;;18.80;35.50;;;;;;5078776;28;19926;-58
2023/04/28 01:20:12;;;;;;;;;;;18.80;35.50;;;;;;5063408;28;19920;-58
2023/04/28 01:22:38;;;;;;;;;;;18.80;35.40;;;;;;5079538;28;19931;-59
2023/04/28 01:25:07;;;;;;;;;;;18.80;35.40;;;;;;5062949;28;20400;-59
2023/04/28 01:27:34;;;;;;;;;;;18.80;35.40;;;;;;5078684;28;19993;-60
2023/04/28 01:30:00;;;;;;;;;;;18.80;35.40;;;;;;5075633;28;19968;-59
2023/04/28 01:32:27;;;;;;;;;;;18.80;35.40;;;;;;5086140;28;19924;-58
2023/04/28 01:34:54;;;;;;;;;;;18.80;35.40;;;;;;5064196;28;19928;-59
2023/04/28 01:37:20;;;;;;;;;;;18.70;35.30;;;;;;5081553;28;19932;-59
2023/04/28 01:39:47;;;;;;;;;;;18.80;35.40;;;;;;5067352;28;19924;-59
2023/04/28 01:42:15;;;;;;;;;;;18.70;35.30;;;;;;5062504;28;19940;-60
2023/04/28 01:44:42;;;;;;;;;;;18.70;35.30;;;;;;5081034;28;19920;-59
2023/04/28 01:47:09;;;;;;;;;;;18.70;35.30;;;;;;5083593;28;19927;-59
2023/04/28 01:49:36;;;;;;;;;;;18.80;35.40;;;;;;5063314;28;19924;-60
2023/04/28 01:52:03;;;;;;;;;;;18.70;35.30;;;;;;5086665;28;19920;-59
2023/04/28 01:54:29;;;;;;;;;;;18.70;35.30;;;;;;5065619;28;19975;-59
2023/04/28 01:56:56;;;;;;;;;;;18.70;35.30;;;;;;5063697;28;19924;-59
2023/04/28 01:59:24;;;;;;;;;;;18.70;35.30;;;;;;5068465;28;19946;-59
2023/04/28 02:01:51;;;;;;;;;;;18.70;35.30;;;;;;5063232;28;19924;-59
2023/04/28 02:04:19;;;;;;;;;;;18.70;35.30;;;;;;5086906;28;19924;-60
2023/04/28 02:06:45;;;;;;;;;;;18.70;35.20;;;;;;5084474;28;19959;-59
2023/04/28 02:09:12;;;;;;;;;;;18.70;35.20;;;;;;5067969;28;19920;-58
2023/04/28 02:11:39;;;;;;;;;;;18.70;35.20;;;;;;5064947;28;19924;-58
2023/04/28 02:14:06;;;;;;;;;;;18.70;35.20;;;;;;5083450;28;20378;-59
2023/04/28 02:16:34;;;;;;;;;;;18.70;35.20;;;;;;5080806;28;19927;-59
2023/04/28 02:19:01;;;;;;;;;;;18.70;35.20;;;;;;5081538;28;19997;-59
2023/04/28 02:21:28;;;;;;;;;;;18.70;35.20;;;;;;5065771;28;19924;-60
2023/04/28 02:23:54;;;;;;;;;;;18.70;35.20;;;;;;5065334;28;20001;-60
2023/04/28 02:26:21;;;;;;;;;;;18.70;35.20;;;;;;5086199;28;19943;-59
2023/04/28 02:28:48;;;;;;;;;;;18.70;35.20;;;;;;5062961;28;19958;-60
2023/04/28 02:31:15;;;;;;;;;;;18.70;35.10;;;;;;5086645;28;19930;-58
2023/04/28 02:33:44;;;;;;;;;;;18.70;35.10;;;;;;5067110;28;19927;-58
2023/04/28 02:36:10;;;;;;;;;;;18.70;35.10;;;;;;5082272;28;20412;-59
2023/04/28 02:38:37;;;;;;;;;;;18.70;35.10;;;;;;5061843;28;19959;-59
2023/04/28 02:41:04;;;;;;;;;;;18.60;35.00;;;;;;5067927;28;19920;-58
2023/04/28 02:43:31;;;;;;;;;;;18.60;35.00;;;;;;5063797;28;19920;-58
2023/04/28 02:45:59;;;;;;;;;;;18.60;35.00;;;;;;5087150;28;19981;-59
2023/04/28 02:48:32;;;;;;;;;;;18.60;35.00;;;;;;5078325;28;19927;-59
2023/04/28 02:51:01;;;;;;;;;;;18.60;35.00;;;;;;5072970;28;20020;-60
2023/04/28 02:53:27;;;;;;;;;;;18.60;34.90;;;;;;5062193;28;19977;-59
2023/04/28 02:55:54;;;;;;;;;;;18.60;34.90;;;;;;5064432;28;19963;-60
2023/04/28 02:58:21;;;;;;;;;;;18.60;35.00;;;;;;5062882;28;20003;-59
2023/04/28 03:00:48;;;;;;;;;;;18.60;34.90;;;;;;5081119;28;19946;-59
2023/04/28 03:03:15;;;;;;;;;;;18.60;34.90;;;;;;5066025;28;19970;-58
2023/04/28 03:05:41;;;;;;;;;;;18.60;34.90;;;;;;5066167;28;19920;-60
2023/04/28 03:08:10;;;;;;;;;;;18.60;34.90;;;;;;5080980;28;19935;-60
2023/04/28 03:10:36;;;;;;;;;;;18.60;34.90;;;;;;5067406;28;19969;-59
2023/04/28 03:13:03;;;;;;;;;;;18.60;34.90;;;;;;5065707;28;20274;-58
2023/04/28 03:15:30;;;;;;;;;;;18.60;34.90;;;;;;5080278;28;19924;-58
2023/04/28 03:17:57;;;;;;;;;;;18.60;34.90;;;;;;5062901;28;19932;-59
2023/04/28 03:20:23;;;;;;;;;;;18.60;34.90;;;;;;5081673;28;19985;-58
2023/04/28 03:22:50;;;;;;;;;;;18.60;34.90;;;;;;5064509;28;20427;-59
2023/04/28 03:25:18;;;;;;;;;;;18.50;34.90;;;;;;5083887;28;19970;-62
2023/04/28 03:27:45;;;;;;;;;;;18.60;34.90;;;;;;5061537;28;19928;-59
2023/04/28 03:30:12;;;;;;;;;;;18.50;34.80;;;;;;5081455;28;19920;-60
2023/04/28 03:32:39;;;;;;;;;;;18.60;34.90;;;;;;5076859;28;19928;-57
2023/04/28 03:35:06;;;;;;;;;;;18.60;34.90;;;;;;5066231;28;19920;-59
2023/04/28 03:37:33;;;;;;;;;;;18.50;34.80;;;;;;5081299;28;20008;-59
2023/04/28 03:39:59;;;;;;;;;;;18.60;34.90;;;;;;5082331;28;19977;-60
2023/04/28 03:42:28;;;;;;;;;;;18.50;34.80;;;;;;5063862;28;19920;-58
2023/04/28 03:44:54;;;;;;;;;;;18.50;34.80;;;;;;5083919;28;20530;-59
2023/04/28 03:47:21;;;;;;;;;;;18.50;34.80;;;;;;5065727;28;20412;-60
2023/04/28 03:49:48;;;;;;;;;;;18.50;34.80;;;;;;5068338;28;19931;-59
2023/04/28 03:52:15;;;;;;;;;;;18.50;34.70;;;;;;5060299;28;19924;-60
2023/04/28 03:54:41;;;;;;;;;;;18.50;34.70;;;;;;5059595;28;19920;-59
2023/04/28 03:57:08;;;;;;;;;;;18.50;34.70;;;;;;5066694;28;19920;-59
2023/04/28 03:59:37;;;;;;;;;;;18.50;34.70;;;;;;5059137;28;19950;-59
2023/04/28 04:02:03;;;;;;;;;;;18.50;34.70;;;;;;5080145;28;19924;-59
2023/04/28 04:04:30;;;;;;;;;;;18.50;34.80;;;;;;5065839;28;19969;-59
2023/04/28 04:06:57;;;;;;;;;;;18.50;34.70;;;;;;5063483;28;19939;-60
2023/04/28 04:09:24;;;;;;;;;;;18.50;34.70;;;;;;5061415;28;19924;-59
2023/04/28 04:11:50;;;;;;;;;;;18.50;34.70;;;;;;5061993;28;19931;-60
2023/04/28 04:14:17;;;;;;;;;;;18.50;35.30;;;;;;5077577;28;20366;-58
2023/04/28 04:16:45;;;;;;;;;;;18.50;34.70;;;;;;5082159;28;19920;-59
2023/04/28 04:19:12;;;;;;;;;;;18.50;34.70;;;;;;5063725;28;19920;-59
2023/04/28 04:21:39;;;;;;;;;;;18.50;34.70;;;;;;5078435;28;19920;-59
2023/04/28 04:24:07;;;;;;;;;;;18.50;34.70;;;;;;5063889;28;20006;-59
2023/04/28 04:26:34;;;;;;;;;;;18.50;34.70;;;;;;5080594;28;20019;-59
2023/04/28 04:29:00;;;;;;;;;;;18.50;34.70;;;;;;5080742;28;19928;-59
2023/04/28 04:31:27;;;;;;;;;;;18.50;34.70;;;;;;5061372;28;20315;-58
2023/04/28 04:33:55;;;;;;;;;;;18.50;34.70;;;;;;5063861;28;19924;-59
2023/04/28 04:36:22;;;;;;;;;;;18.50;34.70;;;;;;5061745;28;19927;-59
2023/04/28 04:38:49;;;;;;;;;;;18.50;34.70;;;;;;5062663;28;19924;-59
2023/04/28 04:41:15;;;;;;;;;;;18.50;34.70;;;;;;5070506;28;20359;-59
2023/04/28 04:43:42;;;;;;;;;;;18.50;34.70;;;;;;5079127;28;19951;-59
2023/04/28 04:46:09;;;;;;;;;;;18.50;34.70;;;;;;5066153;28;19977;-59
2023/04/28 04:48:36;;;;;;;;;;;18.50;34.80;;;;;;5066329;28;19947;-59
2023/04/28 04:51:04;;;;;;;;;;;18.50;34.80;;;;;;5059862;28;19921;-59
2023/04/28 04:53:31;;;;;;;;;;;18.50;34.80;;;;;;5077675;28;19931;-59
2023/04/28 04:55:58;;;;;;;;;;;18.50;34.70;;;;;;5053051;28;19932;-59
2023/04/28 04:58:24;;;;;;;;;;;18.50;34.70;;;;;;5059820;28;19946;-59
2023/04/28 05:00:51;;;;;;;;;;;18.50;34.70;;;;;;5082587;28;19978;-59
2023/04/28 05:03:18;;;;;;;;;;;18.50;34.70;;;;;;5079231;28;19939;-59
2023/04/28 05:05:45;;;;;;;;;;;18.50;34.70;;;;;;5066333;28;19920;-59
2023/04/28 05:08:13;;;;;;;;;;;18.50;34.70;;;;;;5065599;28;19925;-59
2023/04/28 05:10:39;;;;;;;;;;;18.50;34.70;;;;;;5063605;28;19969;-59
2023/04/28 05:13:06;;;;;;;;;;;18.40;34.60;;;;;;5066680;28;19932;-59
2023/04/28 05:15:33;;;;;;;;;;;18.50;34.60;;;;;;5073737;28;19921;-59
2023/04/28 05:18:00;;;;;;;;;;;18.50;34.60;;;;;;5070711;28;20267;-59
2023/04/28 05:20:26;;;;;;;;;;;18.50;34.60;;;;;;5074241;28;20018;-58
2023/04/28 05:22:53;;;;;;;;;;;18.40;34.60;;;;;;5059700;28;19951;-59
2023/04/28 05:25:21;;;;;;;;;;;18.50;34.60;;;;;;5084826;28;19921;-59
2023/04/28 05:27:48;;;;;;;;;;;18.50;34.60;;;;;;5064266;28;19989;-59
2023/04/28 05:30:15;;;;;;;;;;;18.50;34.50;;;;;;5065504;28;19931;-59
2023/04/28 05:32:42;;;;;;;;;;;18.50;34.50;;;;;;5082567;28;19997;-59
2023/04/28 05:35:09;;;;;;;;;;;18.40;34.50;;;;;;5079574;28;19924;-59
2023/04/28 05:37:37;;;;;;;;;;;18.40;34.50;;;;;;5064997;28;19931;-59
2023/04/28 05:40:04;;;;;;;;;;;18.40;34.40;;;;;;5066743;28;19965;-59
2023/04/28 05:42:32;;;;;;;;;;;18.50;34.60;;;;;;5065164;28;19932;-58
2023/04/28 05:44:59;;;;;;;;;;;18.50;34.60;;;;;;5062498;28;19925;-59
2023/04/28 05:47:25;;;;;;;;;;;18.40;34.50;;;;;;5062255;28;20028;-59
2023/04/28 05:49:52;;;;;;;;;;;18.50;34.70;;;;;;5065646;28;19935;-59
2023/04/28 05:52:19;;;;;;;;;;;18.50;34.60;;;;;;5065967;28;19924;-59
2023/04/28 05:54:45;;;;;;;;;;;18.50;34.70;;;;;;5066133;28;19920;-59
2023/04/28 05:57:13;;;;;;;;;;;18.50;34.70;;;;;;5081099;28;19924;-59
2023/04/28 05:59:41;;;;;;;;;;;18.50;34.70;;;;;;5061937;28;20419;-59
2023/04/28 06:02:07;;;;;;;;;;;18.50;34.70;;;;;;5066493;28;19920;-58
2023/04/28 06:04:34;;;;;;;;;;;18.50;34.70;;;;;;5085484;28;19942;-59
2023/04/28 06:07:01;;;;;;;;;;;18.50;34.70;;;;;;5064367;28;19920;-59
2023/04/28 06:09:28;;;;;;;;;;;18.50;34.70;;;;;;5062436;28;19924;-59
2023/04/28 06:11:55;;;;;;;;;;;18.50;34.60;;;;;;5069092;28;19920;-59
2023/04/28 06:14:22;;;;;;;;;;;18.50;34.60;;;;;;5068327;28;19931;-59
2023/04/28 06:16:51;;;;;;;;;;;18.50;34.50;;;;;;5061588;28;19947;-59
2023/04/28 06:19:18;;;;;;;;;;;18.50;34.50;;;;;;5082374;28;19965;-59
2023/04/28 06:21:45;;;;;;;;;;;18.50;34.50;;;;;;5061096;28;20007;-58
2023/04/28 06:24:12;;;;;;;;;;;18.50;34.50;;;;;;5086525;28;19921;-59
2023/04/28 06:26:39;;;;;;;;;;;18.50;34.40;;;;;;5081549;28;19920;-59
2023/04/28 06:29:08;;;;;;;;;;;18.50;34.40;;;;;;5073432;28;19932;-59
2023/04/28 06:31:34;;;;;;;;;;;18.50;34.40;;;;;;5090652;28;19933;-59
2023/04/28 06:34:03;;;;;;;;;;;18.50;34.40;;;;;;5078858;28;19920;-58
2023/04/28 06:36:30;;;;;;;;;;;18.40;34.30;;;;;;5076612;28;19924;-59
2023/04/28 06:38:57;;;;;;;;;;;18.40;34.30;;;;;;5065346;28;19932;-59
2023/04/28 06:41:24;;;;;;;;;;;18.50;34.50;;;;;;5081498;28;19930;-58
2023/04/28 06:43:51;;;;;;;;;;;18.40;34.40;;;;;;5064265;28;19928;-59
2023/04/28 06:46:18;;;;;;;;;;;18.50;34.60;;;;;;5084203;28;19924;-58
2023/04/28 06:48:44;;;;;;;;;;;18.50;34.60;;;;;;5062287;28;19921;-58
2023/04/28 06:51:12;;;;;;;;;;;18.50;34.60;;;;;;5079073;28;19927;-59
2023/04/28 06:53:39;;;;;;;;;;;18.50;34.60;;;;;;5076427;28;19924;-59
2023/04/28 06:56:06;;;;;;;;;;;18.50;34.60;;;;;;5064260;28;19924;-59
2023/04/28 06:58:33;;;;;;;;;;;18.50;34.60;;;;;;5064385;28;19938;-59
2023/04/28 07:01:02;;;;;;;;;;;18.50;34.60;;;;;;5084189;28;19932;-59
2023/04/28 07:03:29;;;;;;;;;;;18.50;34.60;;;;;;5062489;28;20358;-59
2023/04/28 07:05:56;;;;;;;;;;;18.50;34.50;;;;;;5065038;28;20302;-59
2023/04/28 07:08:24;;;;;;;;;;;18.50;34.50;;;;;;5060883;28;19920;-59
2023/04/28 07:10:50;;;;;;;;;;;18.50;34.50;;;;;;5064136;28;19920;-59
2023/04/28 07:13:17;;;;;;;;;;;18.50;34.50;;;;;;5085190;28;19975;-59
2023/04/28 07:15:44;;;;;;;;;;;18.50;34.50;;;;;;5061860;28;19931;-59
2023/04/28 07:18:11;;;;;;;;;;;18.60;34.70;;;;;;5079712;28;20354;-59
2023/04/28 07:20:38;;;;;;;;;;;18.60;34.70;;;;;;5081012;28;20045;-59
2023/04/28 07:23:04;;;;;;;;;;;18.60;34.70;;;;;;5062873;28;19973;-58
2023/04/28 07:25:34;;;;;;;;;;;18.60;34.70;;;;;;5078400;28;20006;-58
2023/04/28 07:28:02;;;;;;;;;;;18.60;34.70;;;;;;5078373;28;19927;-57
2023/04/28 07:30:29;;;;;;;;;;;18.60;34.70;;;;;;5063948;28;19920;-58
2023/04/28 07:32:56;;;;;;;;;;;18.60;34.70;;;;;;5063087;28;19920;-58
2023/04/28 07:35:23;;;;;;;;;;;18.60;34.70;;;;;;5064617;28;19920;-58
2023/04/28 07:37:50;;;;;;;;;;;18.60;34.70;;;;;;5064157;28;19920;-58
2023/04/28 07:40:16;;;;;;;;;;;18.60;34.70;;;;;;5059482;28;19921;-59
2023/04/28 07:42:44;;;;;;;;;;;18.60;34.60;;;;;;5081822;28;19920;-60
2023/04/28 07:45:11;;;;;;;;;;;18.60;34.60;;;;;;5063618;28;19921;-60
2023/04/28 07:47:38;;;;;;;;;;;18.60;34.70;;;;;;5064084;28;19921;-60
2023/04/28 07:50:05;;;;;;;;;;;18.60;34.60;;;;;;5081983;28;20407;-59
2023/04/28 07:52:32;;;;;;;;;;;18.60;34.60;;;;;;5063714;28;19927;-59
2023/04/28 07:54:59;;;;;;;;;;;18.60;34.60;;;;;;5060172;28;19964;-58
2023/04/28 07:57:26;;;;;;;;;;;18.70;34.70;;;;;;5061708;28;19920;-59
2023/04/28 07:59:56;;;;;;;;;;;18.70;34.70;;;;;;5063597;28;19928;-59
2023/04/28 08:02:23;;;;;;;;;;;18.70;34.70;;;;;;5078323;28;19956;-59
2023/04/28 08:04:50;;;;;;;;;;;18.70;34.70;;;;;;5061649;28;19980;-59
2023/04/28 08:07:17;;;;;;;;;;;18.70;34.80;;;;;;5067300;28;19927;-59
2023/04/28 08:09:46;;;;;;;;;;;18.70;35.30;;;;;;5062051;28;19928;-59
2023/04/28 08:12:13;;;;;;;;;;;18.70;34.70;;;;;;5077178;28;19920;-59
2023/04/28 08:14:43;;;;;;;;;;;18.70;34.70;;;;;;5063663;28;19920;-59
2023/04/28 08:17:11;;;;;;;;;;;18.70;34.70;;;;;;5063910;28;19924;-59
2023/04/28 08:19:38;;;;;;;;;;;18.70;34.70;;;;;;5059455;28;19962;-59
2023/04/28 08:22:06;;;;;;;;;;;18.70;34.70;;;;;;5059578;28;19930;-60
2023/04/28 08:24:33;;;;;;;;;;;18.70;34.70;;;;;;5062347;28;19975;-59
2023/04/28 08:27:01;;;;;;;;;;;18.70;34.70;;;;;;5081679;28;19932;-59
2023/04/28 08:29:28;;;;;;;;;;;18.70;34.70;;;;;;5061568;28;19924;-59
2023/04/28 08:31:55;;;;;;;;;;;18.80;34.80;;;;;;5061567;28;19924;-59
2023/04/28 08:34:23;;;;;;;;;;;18.70;34.70;;;;;;5061992;28;19920;-59
2023/04/28 08:36:51;;;;;;;;;;;18.70;34.70;;;;;;5081953;28;19927;-60
2023/04/28 08:39:18;;;;;;;;;;;18.80;34.70;;;;;;5064262;28;20553;-60
2023/04/28 08:41:45;;;;;;;;;;;18.70;34.70;;;;;;5084607;28;20195;-60
2023/04/28 08:44:11;;;;;;;;;;;18.80;34.80;;;;;;5065502;28;20362;-59
2023/04/28 08:46:39;;;;;;;;;;;18.70;34.70;;;;;;5064221;28;19924;-59
2023/04/28 08:49:07;;;;;;;;;;;18.70;34.70;;;;;;5063939;28;19993;-59
2023/04/28 08:51:37;;;;;;;;;;;18.80;34.80;;;;;;5082601;28;19920;-59
2023/04/28 08:54:04;;;;;;;;;;;18.80;34.80;;;;;;5066331;28;19977;-59
2023/04/28 08:56:32;;;;;;;;;;;18.80;34.80;;;;;;5064995;28;19929;-59
2023/04/28 08:59:00;;;;;;;;;;;18.80;34.80;;;;;;5064424;28;20388;-60
2023/04/28 09:01:27;;;;;;;;;;;18.80;34.80;;;;;;5081932;28;19959;-60
2023/04/28 09:03:54;;;;;;;;;;;18.80;34.80;;;;;;5065078;28;20010;-60
2023/04/28 09:06:21;;;;;;;;;;;18.80;34.70;;;;;;5065646;28;20357;-59
2023/04/28 09:08:50;;;;;;;;;;;18.80;34.80;;;;;;5064617;28;19924;-59
2023/04/28 09:11:18;;;;;;;;;;;18.80;34.70;;;;;;5064249;28;19932;-59
2023/04/28 09:13:44;;;;;;;;;;;18.80;34.80;;;;;;5070599;28;19920;-59
2023/04/28 09:16:11;;;;;;;;;;;18.80;34.80;;;;;;5064536;28;19977;-59
2023/04/28 09:18:38;;;;;;;;;;;18.80;34.80;;;;;;5086871;28;19927;-59
2023/04/28 09:21:05;;;;;;;;;;;18.80;35.40;;;;;;5063398;28;19920;-59
2023/04/28 09:23:33;;;;;;;;;;;18.80;34.70;;;;;;5081425;28;19954;-59
2023/04/28 09:26:02;;;;;;;;;;;18.80;34.80;;;;;;5066595;28;19955;-59
2023/04/28 09:28:29;;;;;;;;;;;18.80;34.80;;;;;;5062614;28;19924;-59
2023/04/28 09:30:55;;;;;;;;;;;18.80;34.80;;;;;;5067067;28;19920;-59
2023/04/28 09:33:22;;;;;;;;;;;18.80;34.80;;;;;;5081430;28;19946;-58
2023/04/28 09:35:49;;;;;;;;;;;18.90;34.90;;;;;;5066042;28;19920;-59
2023/04/28 09:38:16;;;;;;;;;;;18.90;34.90;;;;;;5059895;28;19936;-59
2023/04/28 09:40:49;;;;;;;;;;;18.80;34.80;;;;;;5065095;28;19920;-59
2023/04/28 09:43:24;;;;;;;;;;;18.80;34.80;;;;;;5088169;28;20026;-60
2023/04/28 09:45:51;;;;;;;;;;;18.90;34.90;;;;;;5087013;28;19920;-61
2023/04/28 09:48:17;;;;;;;;;;;18.90;34.90;;;;;;5081592;28;19950;-59
2023/04/28 09:50:45;;;;;;;;;;;18.90;34.90;;;;;;5086668;28;20368;-59
2023/04/28 09:53:12;;;;;;;;;;;18.90;34.90;;;;;;5063611;28;19953;-59
2023/04/28 09:55:39;;;;;;;;;;;18.90;34.90;;;;;;5067103;28;20019;-59
2023/04/28 09:58:06;;;;;;;;;;;18.90;34.80;;;;;;5080673;28;19920;-59
2023/04/28 10:00:34;;;;;;;;;;;18.90;34.80;;;;;;5064180;28;20313;-59
2023/04/28 10:03:02;;;;;;;;;;;18.90;34.80;;;;;;5082992;28;19920;-59
2023/04/28 10:05:28;;;;;;;;;;;18.90;34.80;;;;;;5084373;28;19921;-58
2023/04/28 10:07:56;;;;;;;;;;;18.90;34.70;;;;;;5065002;28;19974;-59
2023/04/28 10:10:24;;;;;;;;;;;18.90;34.70;;;;;;5081132;28;19927;-59
2023/04/28 10:12:50;;;;;;;;;;;18.90;34.70;;;;;;5065864;28;19931;-59
2023/04/28 10:15:17;;;;;;;;;;;18.90;34.70;;;;;;5083956;28;20379;-59
2023/04/28 10:17:46;;;;;;;;;;;18.90;34.70;;;;;;5082228;28;19925;-60
2023/04/28 10:20:13;;;;;;;;;;;18.90;34.60;;;;;;5062096;28;20092;-59
2023/04/28 10:22:47;;;;;;;;;;;18.90;34.60;;;;;;5081991;28;20055;-59
2023/04/28 10:25:25;;;;;;;;;;;18.90;34.60;;;;;;5057451;28;19932;-59
2023/04/28 10:27:51;;;;;;;;;;;18.90;34.60;;;;;;5061830;28;19962;-59
2023/04/28 10:30:19;;;;;;;;;;;18.90;34.60;;;;;;5066511;28;19940;-60
2023/04/28 10:32:48;;;;;;;;;;;18.90;34.60;;;;;;5065591;28;19920;-59
2023/04/28 10:35:35;;;;;;;;;;;18.90;34.50;;;;;;5064742;28;19931;-59
2023/04/28 10:38:05;;;;;;;;;;;18.90;34.60;;;;;;5082039;28;19920;-59
2023/04/28 10:40:32;;;;;;;;;;;18.90;34.60;;;;;;5087472;28;20425;-59
2023/04/28 10:42:58;;;;;;;;;;;18.90;34.60;;;;;;5063229;28;19920;-59
2023/04/28 10:45:44;;;;;;;;;;;19.00;34.70;;;;;;5084985;28;19927;-60
2023/04/28 10:48:12;;;;;;;;;;;19.00;34.70;;;;;;5066791;28;19989;-59
2023/04/28 10:50:40;;;;;;;;;;;19.00;34.80;;;;;;5067999;28;20495;-59
2023/04/28 10:53:07;;;;;;;;;;;19.00;34.80;;;;;;5064529;28;20115;-60
2023/04/28 10:55:35;;;;;;;;;;;19.00;34.80;;;;;;5064593;28;19921;-60
2023/04/28 10:58:33;;;;;;;;;;;19.00;34.80;;;;;;5063145;28;19990;-59
2023/04/28 11:01:18;;;;;;;;;;;19.00;34.80;;;;;;4968319;28;19922;-59
2023/04/28 11:03:49;;;;;;;;;;;19.00;34.70;;;;;;5068497;28;19920;-63
2023/04/28 11:06:20;;;;;;;;;;;19.00;34.80;;;;;;5061375;28;19997;-59
2023/04/28 11:08:46;;;;;;;;;;;19.00;34.80;;;;;;5063280;28;19927;-59
2023/04/28 11:11:23;;;;;;;;;;;19.00;34.80;;;;;;5074740;28;19985;-59
2023/04/28 11:13:50;;;;;;;;;;;19.00;34.80;;;;;;5063145;28;19920;-60
2023/04/28 11:16:18;;;;;;;;;;;19.00;34.80;;;;;;5078927;28;19925;-59
2023/04/28 11:18:56;;;;;;;;;;;19.00;34.80;;;;;;5065635;28;20014;-59
2023/04/28 11:21:23;;;;;;;;;;;19.00;34.80;;;;;;5061333;28;20724;-63
2023/04/28 11:23:50;;;;;;;;;;;19.00;34.80;;;;;;5065243;28;19920;-60
2023/04/28 11:26:17;;;;;;;;;;;19.00;34.80;;;;;;5064112;28;20388;-59
2023/04/28 11:28:47;;;;;;;;;;;19.00;34.80;;;;;;5081555;28;20377;-59
2023/04/28 11:31:17;;;;;;;;;;;19.10;34.90;;;;;;5083120;28;20393;-58
2023/04/28 11:33:45;;;;;;;;;;;19.10;34.90;;;;;;5067838;28;19971;-59
2023/04/28 11:36:23;;;;;;;;;;;19.00;34.80;;;;;;5060509;28;19924;-59
2023/04/28 11:38:50;;;;;;;;;;;19.00;34.80;;;;;;5064786;28;19970;-59
2023/04/28 11:41:16;;;;;;;;;;;19.00;34.80;;;;;;5080193;28;19931;-59
2023/04/28 11:43:43;;;;;;;;;;;19.00;34.80;;;;;;5061672;28;19924;-59
2023/04/28 11:46:10;;;;;;;;;;;19.10;34.90;;;;;;5081410;28;19974;-59
2023/04/28 11:48:37;;;;;;;;;;;19.00;34.80;;;;;;5081789;28;19920;-59
2023/04/28 11:51:05;;;;;;;;;;;19.00;34.80;;;;;;5058087;28;19921;-60
2023/04/28 11:53:42;;;;;;;;;;;19.00;34.80;;;;;;5059839;28;19920;-59
2023/04/28 11:56:10;;;;;;;;;;;19.00;34.80;;;;;;5061302;28;19924;-60
2023/04/28 11:58:37;;;;;;;;;;;19.00;34.80;;;;;;5061710;28;19974;-59
2023/04/28 12:01:08;;;;;;;;;;;19.00;34.80;;;;;;5062380;28;19989;-59
2023/04/28 12:03:42;;;;;;;;;;;19.00;34.80;;;;;;5063066;28;19970;-60
2023/04/28 12:06:08;;;;;;;;;;;19.00;34.80;;;;;;5076714;28;19920;-59
2023/04/28 12:08:35;;;;;;;;;;;19.00;34.80;;;;;;5081675;28;19940;-60
2023/04/28 12:11:10;;;;;;;;;;;19.00;34.80;;;;;;5080945;28;19943;-60
2023/04/28 12:13:37;;;;;;;;;;;19.00;34.80;;;;;;5080562;28;19931;-59
2023/04/28 12:16:04;;;;;;;;;;;19.10;34.90;;;;;;5062501;28;20062;-60
2023/04/28 12:18:31;;;;;;;;;;;19.10;34.90;;;;;;5080020;28;19987;-60
2023/04/28 12:20:58;;;;;;;;;;;19.10;34.90;;;;;;5048210;28;19967;-58
2023/04/28 12:23:29;;;;;;;;;;;19.10;34.90;;;;;;5062057;28;19924;-59
2023/04/28 12:25:56;;;;;;;;;;;19.10;34.90;;;;;;5075343;28;19920;-61
2023/04/28 12:28:24;;;;;;;;;;;19.10;34.90;;;;;;5083249;28;19952;-60
2023/04/28 12:31:02;;;;;;;;;;;19.10;35.00;;;;;;5079859;28;19925;-59
2023/04/28 12:33:29;;;;;;;;;;;19.10;34.90;;;;;;5083473;28;19924;-59
2023/04/28 12:35:56;;;;;;;;;;;19.10;34.90;;;;;;5064009;28;19920;-60
2023/04/28 12:38:22;;;;;;;;;;;19.10;34.90;;;;;;5070924;28;19920;-59
2023/04/28 12:40:49;;;;;;;;;;;19.10;34.90;;;;;;5063066;28;19964;-60
2023/04/28 12:43:16;;;;;;;;;;;19.10;34.90;;;;;;5061143;28;19925;-60
2023/04/28 12:45:44;;;;;;;;;;;19.10;34.90;;;;;;5080920;28;19965;-60
2023/04/28 12:48:11;;;;;;;;;;;19.10;34.90;;;;;;5078651;28;19920;-60
2023/04/28 12:50:38;;;;;;;;;;;19.10;34.90;;;;;;5062552;28;19970;-60
2023/04/28 12:53:05;;;;;;;;;;;19.10;34.90;;;;;;5059318;28;19927;-60
2023/04/28 12:55:32;;;;;;;;;;;19.10;34.90;;;;;;5065077;28;20015;-60
2023/04/28 12:57:59;;;;;;;;;;;19.10;34.90;;;;;;5065195;28;19928;-60
2023/04/28 13:00:26;;;;;;;;;;;19.10;34.90;;;;;;5063593;28;19927;-61
2023/04/28 13:02:55;;;;;;;;;;;19.10;34.90;;;;;;5061262;28;19924;-60
2023/04/28 13:05:22;;;;;;;;;;;19.10;34.90;;;;;;5059545;28;19985;-60
2023/04/28 13:07:49;;;;;;;;;;;19.10;34.90;;;;;;5060711;28;19920;-60
2023/04/28 13:10:17;;;;;;;;;;;19.10;34.90;;;;;;5061799;28;19921;-59
2023/04/28 13:12:43;;;;;;;;;;;19.10;34.90;;;;;;5078956;28;19932;-59
2023/04/28 13:15:11;;;;;;;;;;;19.10;34.90;;;;;;5078074;28;19935;-59
2023/04/28 13:17:38;;;;;;;;;;;19.10;34.90;;;;;;5078860;28;19929;-59
2023/04/28 13:20:08;;;;;;;;;;;19.10;34.90;;;;;;5072796;28;19924;-60
2023/04/28 13:22:34;;;;;;;;;;;19.10;34.90;;;;;;5061242;28;19925;-62
2023/04/28 13:25:01;;;;;;;;;;;19.10;35.00;;;;;;5060872;28;19924;-62
2023/04/28 13:27:32;;;;;;;;;;;19.10;35.00;;;;;;5060348;28;20471;-62
2023/04/28 13:29:58;;;;;;;;;;;19.10;35.00;;;;;;5082267;28;19932;-63
2023/04/28 13:32:26;;;;;;;;;;;19.20;35.10;;;;;;5081021;28;19921;-63
2023/04/28 13:34:53;;;;;;;;;;;19.20;35.20;;;;;;5077490;28;20432;-63
2023/04/28 13:37:21;;;;;;;;;;;19.20;35.10;;;;;;5078833;28;19928;-64
2023/04/28 13:39:48;;;;;;;;;;;19.20;35.20;;;;;;5066897;28;19920;-63
2023/04/28 13:42:15;;;;;;;;;;;19.20;35.20;;;;;;5067188;28;20373;-63
2023/04/28 13:44:41;;;;;;;;;;;19.20;35.20;;;;;;5084904;28;19920;-62
2023/04/28 13:47:09;;;;;;;;;;;19.20;35.20;;;;;;5069968;28;19964;-63
2023/04/28 13:49:38;;;;;;;;;;;19.20;35.20;;;;;;5080766;28;19920;-64
2023/04/28 13:52:05;;;;;;;;;;;19.20;35.20;;;;;;5068757;28;19924;-63
2023/04/28 13:54:33;;;;;;;;;;;19.30;35.40;;;;;;5078846;28;19920;-62
2023/04/28 13:57:00;;;;;;;;;;;19.30;35.40;;;;;;5084318;28;19969;-63
2023/04/28 13:59:27;;;;;;;;;;;19.30;35.30;;;;;;5077839;28;20384;-64
2023/04/28 14:01:53;;;;;;;;;;;19.30;35.40;;;;;;5065174;28;20026;-63
2023/04/28 14:04:21;;;;;;;;;;;19.30;35.40;;;;;;5066256;28;19924;-62
2023/04/28 14:06:49;;;;;;;;;;;19.30;35.40;;;;;;5082673;28;19951;-62
2023/04/28 14:09:16;;;;;;;;;;;19.30;35.40;;;;;;5061142;28;19924;-63
2023/04/28 14:11:45;;;;;;;;;;;19.30;35.40;;;;;;5064344;28;19928;-63
2023/04/28 14:14:12;;;;;;;;;;;19.30;35.40;;;;;;5086166;28;19941;-64
2023/04/28 14:16:38;;;;;;;;;;;19.40;36.10;;;;;;5082499;28;20007;-64
2023/04/28 14:19:06;;;;;;;;;;;19.30;35.50;;;;;;5061749;28;19920;-63